Neilston, United Kingdom
Current Conditions -  °F | °C
As of 6:20 AM on Friday 28 Nov 2014 (Local Time) from EGPF Reporting Station
Moderate Fog Moderate Fog  
Wind Chill: 34°   Ceiling: Unl
Heat Index: 37°   Visibility: 0.09mi
Dew Point: 37°   Wind: 5mph
Humidity: 100%   Direction: 80°E
Pressure: 29.71"   Gusts: NA
Location:  55.79°N, 4.43°W
Report Text: EGPF 280620Z AUTO 08004KT 0150 R05/0450 FG VV/// 03/03 Q1006
Loading
Personal Weather Stations






























Interactive Weather Map New forecast layout! Learn more

10-Day Weather Forecast

Advertisements
Track Severe Weather on mobile